North Valleys Regional Park, Lemmon Valley, Nevada Weather observations

Data are for 10 minute period ending at time listed.
 Day   Time   Solar   Ave.   Ave.  Ave.  Vector  Max.   Baro.   Total    
  of    of     Rad.   Air    Rel.  Wind   Wind   Wind  Press.  Precip.   
Year   Day            Temp.  Hum.  Speed  Dir.   Gust                    
2021   (PST)  Kw/m2    F      %     mph   deg.    mph    mb.     in.     
-------------------------------------------------------------------------
 124   14:10   0.86   75.3    17   10.2   270    18.3   99999.0    0.00 
 124   14:20   0.83   75.7    16    7.0   296    16.7   99999.0    0.00 
 124   14:30   0.81   76.2    16    9.3   275    21.1   99999.0    0.00 
 124   14:40   0.79   75.7    16    9.6   274    17.8   99999.0    0.00 
 124   14:50   0.76   75.5    17    9.0   282    17.8   99999.0    0.00 
 124   15:00   0.73   75.7    18   10.5   269    18.3   99999.0    0.00 
 124   15:10   0.70   75.2    19    7.9   261    13.9   99999.0    0.00 
 124   15:20   0.68   75.8    18    7.1   266    11.6   99999.0    0.00 
 124   15:30   0.65   75.9    17    8.6   276    15.0   99999.0    0.00 
 124   15:40   0.62   75.9    17    9.2   274    16.1   99999.0    0.00 
 124   15:50   0.59   75.4    17    9.1   279    15.5   99999.0    0.00 
 124   16:00   0.56   75.8    17    8.8   272    16.7   99999.0    0.00 
 124   16:10   0.52   76.0    17    8.0   281    16.7   99999.0    0.00 
 124   16:20   0.49   75.0    18    9.4   268    15.0   99999.0    0.00 
 124   16:30   0.46   75.8    18    5.8   276    12.8   99999.0    0.00 
 124   16:40   0.43   75.7    18    6.0   290    12.8   99999.0    0.00 
 124   16:50   0.40   75.3    19    5.8   291    11.6   99999.0    0.00 
 124   17:00   0.36   75.6    18    6.2   281    13.9   99999.0    0.00 
 124   17:10   0.33   74.8    19    7.5   269    13.3   99999.0    0.00 
 124   17:20   0.30   74.6    20    5.1   289    10.0   99999.0    0.00 
 124   17:30   0.26   74.6    20    3.4   327    10.5   99999.0    0.00 
 124   17:40   0.22   74.6    20    5.8   298    12.2   99999.0    0.00 
 124   17:50   0.12   73.8    21    5.8   286     9.4   99999.0    0.00 
 124   18:00   0.12   73.9    21    3.7   303    11.1   99999.0    0.00 
 124   18:10   0.13   73.0    22    4.0   356     7.7   99999.0    0.00 
 124   18:20   0.10   72.4    21    1.8   312     6.0   99999.0    0.00 
 124   18:30   0.06   71.7    25    4.3   257    10.0   99999.0    0.00 
 124   18:40   0.04   70.6    26    6.3   266    11.1   99999.0    0.00 
 124   18:50   0.01   69.4    27    6.5   251    11.6   99999.0    0.00 
 124   19:00   0.01   68.2    28    5.6   252    10.0   99999.0    0.00 
 124   19:10   0.00   67.3    29    3.9   259    10.0   99999.0    0.00 
 124   19:20   0.00   66.5    30    3.5   263     5.5   99999.0    0.00 
 124   19:30   0.00   65.7    31    4.0   274     7.7   99999.0    0.00 
 124   19:40   0.00   65.1    32    5.1   261     8.8   99999.0    0.00 
 124   19:50   0.00   64.5    34    5.4   264    10.5   99999.0    0.00 
 124   20:00   0.00   64.4    33    5.0   255    11.1   99999.0    0.00 
 124   20:10   0.00   64.3    33    4.3   264     9.4   99999.0    0.00 
 124   20:20   0.00   63.8    36    3.8   267     7.7   99999.0    0.00 
 124   20:30   0.00   62.9    35    3.5   243     6.6   99999.0    0.00 
 124   20:40   0.00   61.9    35    2.1   248     4.9   99999.0    0.00 
 124   20:50   0.00   61.6    35    2.8   238     4.9   99999.0    0.00 
 124   21:00   0.00   61.2    35    2.1   256     4.4   99999.0    0.00 
 124   21:10   0.00   60.4    36    0.1    24     2.1   99999.0    0.00 
 124   21:20   0.00   58.4    39    1.6   357     4.4   99999.0    0.00 
 124   21:30   0.00   57.2    41    2.4   350     4.4   99999.0    0.00 
 124   21:40   0.00   57.3    42    0.5   342     2.7   99999.0    0.00 
 124   21:50   0.00   58.0    41    1.0   261     4.9   99999.0    0.00 
 124   22:00   0.00   59.3    38    3.0   264     4.9   99999.0    0.00 
 124   22:10   0.00   58.6    40    1.8   280     3.8   99999.0    0.00 
 124   22:20   0.00   58.2    42    2.8   258     4.9   99999.0    0.00 
 124   22:30   0.00   58.0    41    3.7   261     7.7   99999.0    0.00 
 124   22:40   0.00   58.3    39    5.0   275     8.8   99999.0    0.00 
 124   22:50   0.00   58.0    40    2.3   281     6.0   99999.0    0.00 
 124   23:00   0.00   57.8    40    2.0   299     6.6   99999.0    0.00 
 124   23:10   0.00   56.4    42    0.3   315     3.2   99999.0    0.00 
 124   23:20   0.00   55.8    44    0.0   322     2.1   99999.0    0.00 
 124   23:30   0.00   55.0    44    0.0     0     0.0   99999.0    0.00 
 124   23:40   0.00   53.3    47    0.1   237     2.7   99999.0    0.00 
 124   23:50   0.00   53.9    46    1.2   228     2.7   99999.0    0.00 
 125    0:00   0.00   51.2    49    0.0    87     1.0   99999.0    0.00 
 125    0:10   0.00   50.5    50    0.0     0     0.0   99999.0    0.00 
 125    0:20   0.00   50.5    51    0.0     0     0.0   99999.0    0.00 
 125    0:30   0.00   51.4    49    0.0     0     0.0   99999.0    0.00 
 125    0:40   0.00   51.2    48    0.3   225     2.7   99999.0    0.00 
 125    0:50   0.00   50.8    47    0.0     0     0.0   99999.0    0.00 
 125    1:00   0.00   50.1    48    0.2   234     2.7   99999.0    0.00 
 125    1:10   0.00   52.2    44    2.5   249     5.5   99999.0    0.00 
 125    1:20   0.00   51.9    44    0.2   209     2.7   99999.0    0.00 
 125    1:30   0.00   51.0    45    0.2   224     2.1   99999.0    0.00 
 125    1:40   0.00   50.1    46    0.0     0     0.0   99999.0    0.00 
 125    1:50   0.00   50.5    46    0.0     0     0.0   99999.0    0.00 
 125    2:00   0.00   50.0    46    2.2   236     4.4   99999.0    0.00 
 125    2:10   0.00   50.0    46    1.4   230     3.8   99999.0    0.00 
 125    2:20   0.00   48.5    47    0.3   124     2.7   99999.0    0.00 
 125    2:30   0.00   48.2    47    0.5   137     2.1   99999.0    0.00 
 125    2:40   0.00   47.7    48    0.1   337     2.1   99999.0    0.00 
 125    2:50   0.00   47.1    50    0.0   327     2.1   99999.0    0.00 
 125    3:00   0.00   46.4    52    0.0     0     0.0   99999.0    0.00 
 125    3:10   0.00   45.9    52    0.1   172     2.1   99999.0    0.00 
 125    3:20   0.00   45.5    54    0.0     0     0.0   99999.0    0.00 
 125    3:30   0.00   45.5    55    0.0     0     0.0   99999.0    0.00 
 125    3:40   0.00   45.2    55    0.0   182     1.0   99999.0    0.00 
 125    3:50   0.00   45.4    55    0.0     0     0.0   99999.0    0.00 
 125    4:00   0.00   45.3    56    0.0     0     0.0   99999.0    0.00 
 125    4:10   0.00   44.0    59    0.0     0     0.0   99999.0    0.00 
 125    4:20   0.00   43.8    58    0.4   203     2.7   99999.0    0.00 
 125    4:30   0.00   43.6    56    0.0   293     2.1   99999.0    0.00 
 125    4:40   0.00   42.3    59    0.1   176     2.1   99999.0    0.00 
 125    4:50   0.00   41.5    62    0.0     0     0.0   99999.0    0.00 
 125    5:00   0.00   41.4    62    0.0     0     0.0   99999.0    0.00 
 125    5:10   0.01   41.3    62    0.0     0     0.0   99999.0    0.00 
 125    5:20   0.03   41.4    62    0.0     0     0.0   99999.0    0.00 
 125    5:30   0.06   43.4    59    0.0     0     0.0   99999.0    0.00 
 125    5:40   0.09   45.1    57    0.0     0     0.0   99999.0    0.00 
 125    5:50   0.13   47.6    53    0.0     7     2.1   99999.0    0.00 
 125    6:00   0.16   48.7    52    1.7   354     4.4   99999.0    0.00 
 125    6:10   0.19   49.8    51    0.0     0     0.0   99999.0    0.00 
 125    6:20   0.22   51.6    47    0.4   344     3.2   99999.0    0.00 
 125    6:30   0.26   53.0    45    0.5   353     3.2   99999.0    0.00 
 125    6:40   0.29   53.7    44    1.2   347     3.8   99999.0    0.00 
 125    6:50   0.32   54.2    44    1.2     5     3.8   99999.0    0.00 
 125    7:00   0.36   55.6    43    0.7   353     3.2   99999.0    0.00 
 125    7:10   0.39   58.3    40    0.1   348     2.1   99999.0    0.00 
 125    7:20   0.42   60.7    36    0.4    61     2.7   99999.0    0.00 
 125    7:30   0.46   62.5    32    4.3   125    10.5   99999.0    0.00 
 125    7:40   0.48   61.8    30    8.5   126    15.5   99999.0    0.00 
 125    7:50   0.52   61.6    29    9.4    97    18.3   99999.0    0.00 
 125    8:00   0.55   61.5    29   10.1    97    17.2   99999.0    0.00 
 125    8:10   0.58   61.6    28    9.3   100    15.5   99999.0    0.00 
 125    8:20   0.62   62.0    28    9.2    93    14.4   99999.0    0.00 
 125    8:30   0.65   62.5    28    9.7   109    16.7   99999.0    0.00 
 125    8:40   0.67   63.2    27    9.1    97    13.9   99999.0    0.00 
 125    8:50   0.70   63.7    27   10.0    88    17.2   99999.0    0.00 
 125    9:00   0.73   64.4    26    9.2   109    16.7   99999.0    0.00 
 125    9:10   0.75   65.4    26    8.1   112    13.9   99999.0    0.00 
 125    9:20   0.78   65.7    25    9.1   108    16.7   99999.0    0.00 
 125    9:30   0.78   66.0    25    8.9   103    13.9   99999.0    0.00 
 125    9:40   0.75   67.5    24    6.8    96    11.1   99999.0    0.00 
 125    9:50   0.83   67.4    24    8.2    82    15.0   99999.0    0.00 
 125   10:00   0.84   68.4    23    6.5    89    12.8   99999.0    0.00 
 125   10:10   0.85   68.7    23    7.9    98    16.1   99999.0    0.00 
 125   10:20   0.91   69.2    23    9.0    85    16.7   99999.0    0.00 
 125   10:30   0.92   70.0    22    8.7   103    15.5   99999.0    0.00 
 125   10:40   0.94   69.8    21    9.0    89    16.1   99999.0    0.00 
 125   10:50   0.94   70.4    21    8.4    88    12.8   99999.0    0.00 
 125   11:00   0.96   71.0    20    7.7    90    15.5   99999.0    0.00 
 125   11:10   0.95   71.8    20    8.0   100    16.7   99999.0    0.00 
 125   11:20   0.98   71.7    20    8.5    91    17.2   99999.0    0.00 
 125   11:30   0.98   72.4    19    6.9    93    15.5   99999.0    0.00 
 125   11:40   0.99   73.2    19    8.0   120    15.0   99999.0    0.00 
 125   11:50   0.99   73.7    18    6.8   104    13.9   99999.0    0.00 
 125   12:00   0.99   74.4    18    7.2   115    14.4   99999.0    0.00 
 125   12:10   0.99   74.4    18    7.9   127    17.2   99999.0    0.00 
 125   12:20   0.99   75.4    18    6.4    84    13.3   99999.0    0.00 
 125   12:30   0.98   74.6    18    8.9   101    16.1   99999.0    0.00 
 125   12:40   0.98   74.8    18    6.6    78    15.0   99999.0    0.00 
 125   12:50   0.97   75.2    18    4.6    82    11.1   99999.0    0.00 
 125   13:00   0.96   75.7    18    8.5    99    16.1   99999.0    0.00 
 125   13:10   0.95   75.8    18    8.4    79    16.1   99999.0    0.00 
 125   13:20   0.94   76.5    18    8.3    87    15.0   99999.0    0.00 
 125   13:30   0.93   77.4    17    5.1    64    10.5   99999.0    0.00 
 125   13:40   0.91   77.3    17    8.9   118    17.2   99999.0    0.00 
 125   13:50   0.89   77.4    17    4.5   110    11.1   99999.0    0.00 
 125   14:00   0.87   78.3    16    8.0    65    16.7   99999.0    0.00 

Return to North Valleys Regional Park graphs page.


Western Regional Climate Center,wrcc@dri.edu